sensor_id;sensor_type;location;lat;lon;timestamp;P1;durP1;ratioP1;P2;durP2;ratioP2
20830;SDS011;10576;53.556;9.868;2022-10-16T00:01:21;13.43;;;9.40;;
20830;SDS011;10576;53.556;9.868;2022-10-16T00:03:48;10.68;;;8.75;;
20830;SDS011;10576;53.556;9.868;2022-10-16T00:06:15;10.45;;;9.10;;
20830;SDS011;10576;53.556;9.868;2022-10-16T00:08:43;10.60;;;8.70;;
20830;SDS011;10576;53.556;9.868;2022-10-16T00:11:20;10.07;;;8.73;;
20830;SDS011;10576;53.556;9.868;2022-10-16T00:13:51;10.33;;;8.63;;
20830;SDS011;10576;53.556;9.868;2022-10-16T00:16:19;9.95;;;8.18;;
20830;SDS011;10576;53.556;9.868;2022-10-16T00:18:45;11.15;;;7.97;;
20830;SDS011;10576;53.556;9.868;2022-10-16T00:21:13;9.23;;;7.97;;
20830;SDS011;10576;53.556;9.868;2022-10-16T00:23:40;9.73;;;7.88;;
20830;SDS011;10576;53.556;9.868;2022-10-16T00:26:08;8.15;;;7.40;;
20830;SDS011;10576;53.556;9.868;2022-10-16T00:28:36;8.63;;;7.13;;
20830;SDS011;10576;53.556;9.868;2022-10-16T00:31:03;10.67;;;7.07;;
20830;SDS011;10576;53.556;9.868;2022-10-16T00:33:33;7.15;;;6.45;;
20830;SDS011;10576;53.556;9.868;2022-10-16T00:35:59;10.27;;;6.20;;
20830;SDS011;10576;53.556;9.868;2022-10-16T00:38:26;8.73;;;5.35;;
20830;SDS011;10576;53.556;9.868;2022-10-16T00:40:52;5.85;;;4.95;;
20830;SDS011;10576;53.556;9.868;2022-10-16T00:46:01;7.83;;;4.80;;
20830;SDS011;10576;53.556;9.868;2022-10-16T00:48:28;5.00;;;4.32;;
20830;SDS011;10576;53.556;9.868;2022-10-16T00:50:54;6.10;;;4.82;;
20830;SDS011;10576;53.556;9.868;2022-10-16T00:53:22;5.10;;;4.05;;
20830;SDS011;10576;53.556;9.868;2022-10-16T00:55:49;6.97;;;3.95;;
20830;SDS011;10576;53.556;9.868;2022-10-16T00:58:14;4.72;;;4.13;;
20830;SDS011;10576;53.556;9.868;2022-10-16T01:00:40;6.10;;;3.78;;
20830;SDS011;10576;53.556;9.868;2022-10-16T01:03:22;6.40;;;3.90;;
20830;SDS011;10576;53.556;9.868;2022-10-16T01:05:52;4.53;;;3.53;;
20830;SDS011;10576;53.556;9.868;2022-10-16T01:11:44;5.40;;;3.47;;
20830;SDS011;10576;53.556;9.868;2022-10-16T01:14:21;5.88;;;4.10;;
20830;SDS011;10576;53.556;9.868;2022-10-16T01:16:55;5.20;;;3.95;;
20830;SDS011;10576;53.556;9.868;2022-10-16T01:19:26;4.03;;;3.67;;
20830;SDS011;10576;53.556;9.868;2022-10-16T01:21:56;8.20;;;3.50;;
20830;SDS011;10576;53.556;9.868;2022-10-16T01:27:08;6.60;;;3.50;;
20830;SDS011;10576;53.556;9.868;2022-10-16T01:29:42;4.93;;;3.33;;
20830;SDS011;10576;53.556;9.868;2022-10-16T01:32:33;4.97;;;3.70;;
20830;SDS011;10576;53.556;9.868;2022-10-16T01:37:51;4.68;;;3.03;;
20830;SDS011;10576;53.556;9.868;2022-10-16T01:40:28;4.88;;;3.10;;
20830;SDS011;10576;53.556;9.868;2022-10-16T01:43:00;5.07;;;2.92;;
20830;SDS011;10576;53.556;9.868;2022-10-16T01:45:29;4.78;;;3.00;;
20830;SDS011;10576;53.556;9.868;2022-10-16T01:47:58;6.07;;;3.17;;
20830;SDS011;10576;53.556;9.868;2022-10-16T01:50:29;4.40;;;3.00;;
20830;SDS011;10576;53.556;9.868;2022-10-16T01:52:59;7.23;;;2.93;;
20830;SDS011;10576;53.556;9.868;2022-10-16T01:55:30;5.15;;;2.78;;
20830;SDS011;10576;53.556;9.868;2022-10-16T01:58:00;4.38;;;2.83;;
20830;SDS011;10576;53.556;9.868;2022-10-16T02:00:28;3.25;;;2.60;;
20830;SDS011;10576;53.556;9.868;2022-10-16T02:02:55;2.80;;;2.60;;
20830;SDS011;10576;53.556;9.868;2022-10-16T02:05:27;5.07;;;3.00;;
20830;SDS011;10576;53.556;9.868;2022-10-16T02:07:57;5.28;;;2.80;;
20830;SDS011;10576;53.556;9.868;2022-10-16T02:10:23;4.18;;;2.60;;
20830;SDS011;10576;53.556;9.868;2022-10-16T02:12:52;4.55;;;2.90;;
20830;SDS011;10576;53.556;9.868;2022-10-16T02:15:22;4.10;;;2.40;;
20830;SDS011;10576;53.556;9.868;2022-10-16T02:17:48;7.17;;;3.00;;
20830;SDS011;10576;53.556;9.868;2022-10-16T02:20:13;4.17;;;2.80;;
20830;SDS011;10576;53.556;9.868;2022-10-16T02:22:41;5.10;;;2.83;;
20830;SDS011;10576;53.556;9.868;2022-10-16T02:33:04;3.72;;;2.58;;
20830;SDS011;10576;53.556;9.868;2022-10-16T02:35:33;5.10;;;2.40;;
20830;SDS011;10576;53.556;9.868;2022-10-16T02:37:59;6.57;;;2.43;;
20830;SDS011;10576;53.556;9.868;2022-10-16T02:40:25;3.38;;;2.40;;
20830;SDS011;10576;53.556;9.868;2022-10-16T02:42:52;3.40;;;2.30;;
20830;SDS011;10576;53.556;9.868;2022-10-16T02:45:19;3.00;;;2.30;;
20830;SDS011;10576;53.556;9.868;2022-10-16T02:47:45;5.13;;;2.40;;
20830;SDS011;10576;53.556;9.868;2022-10-16T02:50:11;5.13;;;2.33;;
20830;SDS011;10576;53.556;9.868;2022-10-16T02:52:37;4.90;;;2.37;;
20830;SDS011;10576;53.556;9.868;2022-10-16T02:55:03;2.50;;;2.30;;
20830;SDS011;10576;53.556;9.868;2022-10-16T02:57:29;6.25;;;2.20;;
20830;SDS011;10576;53.556;9.868;2022-10-16T02:59:54;6.07;;;2.75;;
20830;SDS011;10576;53.556;9.868;2022-10-16T03:02:20;4.78;;;2.30;;
20830;SDS011;10576;53.556;9.868;2022-10-16T03:04:46;2.83;;;2.05;;
20830;SDS011;10576;53.556;9.868;2022-10-16T03:07:11;4.80;;;2.28;;
20830;SDS011;10576;53.556;9.868;2022-10-16T03:09:37;3.30;;;2.13;;
20830;SDS011;10576;53.556;9.868;2022-10-16T03:12:03;4.00;;;2.28;;
20830;SDS011;10576;53.556;9.868;2022-10-16T03:14:29;4.80;;;2.05;;
20830;SDS011;10576;53.556;9.868;2022-10-16T03:16:54;3.00;;;2.17;;
20830;SDS011;10576;53.556;9.868;2022-10-16T03:19:20;5.73;;;2.20;;
20830;SDS011;10576;53.556;9.868;2022-10-16T03:21:45;4.30;;;2.40;;
20830;SDS011;10576;53.556;9.868;2022-10-16T03:24:11;4.88;;;2.40;;
20830;SDS011;10576;53.556;9.868;2022-10-16T03:26:37;3.67;;;2.33;;
20830;SDS011;10576;53.556;9.868;2022-10-16T03:29:03;4.73;;;2.50;;
20830;SDS011;10576;53.556;9.868;2022-10-16T03:31:29;5.35;;;2.30;;
20830;SDS011;10576;53.556;9.868;2022-10-16T03:33:55;3.95;;;2.15;;
20830;SDS011;10576;53.556;9.868;2022-10-16T03:36:21;5.07;;;2.10;;
20830;SDS011;10576;53.556;9.868;2022-10-16T03:38:46;4.27;;;2.10;;
20830;SDS011;10576;53.556;9.868;2022-10-16T03:41:12;3.00;;;2.20;;
20830;SDS011;10576;53.556;9.868;2022-10-16T03:43:38;4.00;;;2.23;;
20830;SDS011;10576;53.556;9.868;2022-10-16T03:46:03;4.50;;;2.38;;
20830;SDS011;10576;53.556;9.868;2022-10-16T03:48:29;4.45;;;2.20;;
20830;SDS011;10576;53.556;9.868;2022-10-16T03:50:55;5.05;;;2.30;;
20830;SDS011;10576;53.556;9.868;2022-10-16T03:53:21;5.70;;;2.40;;
20830;SDS011;10576;53.556;9.868;2022-10-16T03:55:46;5.17;;;2.30;;
20830;SDS011;10576;53.556;9.868;2022-10-16T03:58:12;6.93;;;2.47;;
20830;SDS011;10576;53.556;9.868;2022-10-16T04:00:41;2.77;;;2.20;;
20830;SDS011;10576;53.556;9.868;2022-10-16T04:03:08;5.50;;;2.42;;
20830;SDS011;10576;53.556;9.868;2022-10-16T04:05:34;6.93;;;2.50;;
20830;SDS011;10576;53.556;9.868;2022-10-16T04:07:59;5.13;;;2.20;;
20830;SDS011;10576;53.556;9.868;2022-10-16T04:10:25;2.85;;;2.40;;
20830;SDS011;10576;53.556;9.868;2022-10-16T04:12:51;5.25;;;2.22;;
20830;SDS011;10576;53.556;9.868;2022-10-16T04:15:16;4.28;;;2.28;;
20830;SDS011;10576;53.556;9.868;2022-10-16T04:17:42;6.57;;;2.40;;
20830;SDS011;10576;53.556;9.868;2022-10-16T04:20:08;5.63;;;2.25;;
20830;SDS011;10576;53.556;9.868;2022-10-16T04:22:33;5.32;;;2.25;;
20830;SDS011;10576;53.556;9.868;2022-10-16T04:24:59;4.07;;;2.23;;
20830;SDS011;10576;53.556;9.868;2022-10-16T04:27:25;6.60;;;2.40;;
20830;SDS011;10576;53.556;9.868;2022-10-16T04:29:50;4.40;;;2.50;;
20830;SDS011;10576;53.556;9.868;2022-10-16T04:32:16;6.33;;;2.40;;
20830;SDS011;10576;53.556;9.868;2022-10-16T04:34:41;5.73;;;2.17;;
20830;SDS011;10576;53.556;9.868;2022-10-16T04:37:07;3.67;;;2.30;;
20830;SDS011;10576;53.556;9.868;2022-10-16T04:39:33;4.07;;;2.60;;
20830;SDS011;10576;53.556;9.868;2022-10-16T04:41:59;5.80;;;2.40;;
20830;SDS011;10576;53.556;9.868;2022-10-16T04:44:24;4.93;;;2.40;;
20830;SDS011;10576;53.556;9.868;2022-10-16T04:46:50;3.07;;;2.30;;
20830;SDS011;10576;53.556;9.868;2022-10-16T04:49:16;6.72;;;2.53;;
20830;SDS011;10576;53.556;9.868;2022-10-16T04:51:42;6.17;;;2.63;;
20830;SDS011;10576;53.556;9.868;2022-10-16T04:54:08;3.90;;;2.60;;
20830;SDS011;10576;53.556;9.868;2022-10-16T04:56:34;5.03;;;2.80;;
20830;SDS011;10576;53.556;9.868;2022-10-16T04:59:07;6.03;;;2.90;;
20830;SDS011;10576;53.556;9.868;2022-10-16T05:01:33;4.40;;;2.67;;
20830;SDS011;10576;53.556;9.868;2022-10-16T05:03:58;4.78;;;2.90;;
20830;SDS011;10576;53.556;9.868;2022-10-16T05:06:24;4.93;;;3.22;;
20830;SDS011;10576;53.556;9.868;2022-10-16T05:08:50;5.85;;;3.25;;
20830;SDS011;10576;53.556;9.868;2022-10-16T05:11:15;6.60;;;3.40;;
20830;SDS011;10576;53.556;9.868;2022-10-16T05:13:41;6.38;;;3.50;;
20830;SDS011;10576;53.556;9.868;2022-10-16T05:16:07;4.82;;;3.10;;
20830;SDS011;10576;53.556;9.868;2022-10-16T05:18:32;6.35;;;3.50;;
20830;SDS011;10576;53.556;9.868;2022-10-16T05:20:58;5.88;;;3.60;;
20830;SDS011;10576;53.556;9.868;2022-10-16T05:23:23;7.03;;;3.63;;
20830;SDS011;10576;53.556;9.868;2022-10-16T05:25:53;9.13;;;4.03;;
20830;SDS011;10576;53.556;9.868;2022-10-16T05:28:23;6.33;;;3.67;;
20830;SDS011;10576;53.556;9.868;2022-10-16T05:30:50;8.07;;;3.92;;
20830;SDS011;10576;53.556;9.868;2022-10-16T05:33:15;6.95;;;4.40;;
20830;SDS011;10576;53.556;9.868;2022-10-16T05:35:41;4.82;;;3.72;;
20830;SDS011;10576;53.556;9.868;2022-10-16T05:38:07;5.68;;;4.25;;
20830;SDS011;10576;53.556;9.868;2022-10-16T05:40:33;8.37;;;4.10;;
20830;SDS011;10576;53.556;9.868;2022-10-16T05:42:58;11.10;;;4.10;;
20830;SDS011;10576;53.556;9.868;2022-10-16T05:45:24;6.17;;;3.90;;
20830;SDS011;10576;53.556;9.868;2022-10-16T05:47:49;7.93;;;3.87;;
20830;SDS011;10576;53.556;9.868;2022-10-16T05:50:16;5.68;;;3.97;;
20830;SDS011;10576;53.556;9.868;2022-10-16T05:52:41;7.15;;;3.65;;
20830;SDS011;10576;53.556;9.868;2022-10-16T05:55:07;5.32;;;3.60;;
20830;SDS011;10576;53.556;9.868;2022-10-16T05:57:33;5.90;;;3.53;;
20830;SDS011;10576;53.556;9.868;2022-10-16T05:59:59;5.70;;;3.50;;
20830;SDS011;10576;53.556;9.868;2022-10-16T06:02:24;6.60;;;3.47;;
20830;SDS011;10576;53.556;9.868;2022-10-16T06:04:53;5.60;;;3.50;;
20830;SDS011;10576;53.556;9.868;2022-10-16T06:07:19;4.73;;;3.47;;
20830;SDS011;10576;53.556;9.868;2022-10-16T06:09:47;5.93;;;3.47;;
20830;SDS011;10576;53.556;9.868;2022-10-16T06:12:17;7.78;;;3.20;;
20830;SDS011;10576;53.556;9.868;2022-10-16T06:14:43;7.23;;;3.63;;
20830;SDS011;10576;53.556;9.868;2022-10-16T06:17:09;5.38;;;3.08;;
20830;SDS011;10576;53.556;9.868;2022-10-16T06:19:35;6.53;;;3.38;;
20830;SDS011;10576;53.556;9.868;2022-10-16T06:22:01;5.63;;;3.50;;
20830;SDS011;10576;53.556;9.868;2022-10-16T06:24:27;4.57;;;3.40;;
20830;SDS011;10576;53.556;9.868;2022-10-16T06:26:53;4.20;;;3.40;;
20830;SDS011;10576;53.556;9.868;2022-10-16T06:29:19;6.53;;;3.60;;
20830;SDS011;10576;53.556;9.868;2022-10-16T06:31:44;5.53;;;3.57;;
20830;SDS011;10576;53.556;9.868;2022-10-16T06:34:10;6.67;;;3.50;;
20830;SDS011;10576;53.556;9.868;2022-10-16T06:36:37;7.50;;;3.65;;
20830;SDS011;10576;53.556;9.868;2022-10-16T06:39:03;6.43;;;3.38;;
20830;SDS011;10576;53.556;9.868;2022-10-16T06:41:31;3.70;;;3.30;;
20830;SDS011;10576;53.556;9.868;2022-10-16T06:43:57;5.30;;;3.43;;
20830;SDS011;10576;53.556;9.868;2022-10-16T06:46:23;6.73;;;3.67;;
20830;SDS011;10576;53.556;9.868;2022-10-16T06:48:50;5.23;;;3.50;;
20830;SDS011;10576;53.556;9.868;2022-10-16T06:51:17;5.43;;;3.60;;
20830;SDS011;10576;53.556;9.868;2022-10-16T06:53:44;6.88;;;4.15;;
20830;SDS011;10576;53.556;9.868;2022-10-16T06:56:17;5.73;;;3.63;;
20830;SDS011;10576;53.556;9.868;2022-10-16T06:58:48;7.20;;;4.43;;
20830;SDS011;10576;53.556;9.868;2022-10-16T07:01:15;5.07;;;4.47;;
20830;SDS011;10576;53.556;9.868;2022-10-16T07:03:42;6.07;;;4.25;;
20830;SDS011;10576;53.556;9.868;2022-10-16T07:06:10;8.15;;;4.63;;
20830;SDS011;10576;53.556;9.868;2022-10-16T07:08:38;6.40;;;4.18;;
20830;SDS011;10576;53.556;9.868;2022-10-16T07:11:06;5.57;;;4.38;;
20830;SDS011;10576;53.556;9.868;2022-10-16T07:13:34;6.63;;;4.40;;
20830;SDS011;10576;53.556;9.868;2022-10-16T07:16:20;5.67;;;4.27;;
20830;SDS011;10576;53.556;9.868;2022-10-16T07:18:47;6.20;;;4.07;;
20830;SDS011;10576;53.556;9.868;2022-10-16T07:21:20;11.32;;;4.50;;
20830;SDS011;10576;53.556;9.868;2022-10-16T07:23:56;7.00;;;4.50;;
20830;SDS011;10576;53.556;9.868;2022-10-16T07:26:24;6.20;;;4.30;;
20830;SDS011;10576;53.556;9.868;2022-10-16T07:28:51;7.53;;;4.50;;
20830;SDS011;10576;53.556;9.868;2022-10-16T07:31:18;7.03;;;4.53;;
20830;SDS011;10576;53.556;9.868;2022-10-16T07:33:44;7.57;;;4.30;;
20830;SDS011;10576;53.556;9.868;2022-10-16T07:36:13;5.20;;;4.40;;
20830;SDS011;10576;53.556;9.868;2022-10-16T07:38:40;6.10;;;4.32;;
20830;SDS011;10576;53.556;9.868;2022-10-16T07:41:07;5.13;;;4.60;;
20830;SDS011;10576;53.556;9.868;2022-10-16T07:43:38;5.20;;;4.30;;
20830;SDS011;10576;53.556;9.868;2022-10-16T07:46:04;7.77;;;4.43;;
20830;SDS011;10576;53.556;9.868;2022-10-16T07:48:31;6.53;;;4.30;;
20830;SDS011;10576;53.556;9.868;2022-10-16T07:51:01;6.60;;;4.13;;
20830;SDS011;10576;53.556;9.868;2022-10-16T07:53:29;6.82;;;4.32;;
20830;SDS011;10576;53.556;9.868;2022-10-16T07:56:01;5.72;;;4.00;;
20830;SDS011;10576;53.556;9.868;2022-10-16T07:58:29;5.55;;;4.03;;
20830;SDS011;10576;53.556;9.868;2022-10-16T08:00:55;7.20;;;4.03;;
20830;SDS011;10576;53.556;9.868;2022-10-16T08:03:22;8.07;;;4.38;;
20830;SDS011;10576;53.556;9.868;2022-10-16T08:05:48;4.40;;;4.00;;
20830;SDS011;10576;53.556;9.868;2022-10-16T08:08:15;7.03;;;4.07;;
20830;SDS011;10576;53.556;9.868;2022-10-16T08:10:42;7.38;;;4.15;;
20830;SDS011;10576;53.556;9.868;2022-10-16T08:13:07;5.65;;;4.00;;
20830;SDS011;10576;53.556;9.868;2022-10-16T08:15:33;5.88;;;4.07;;
20830;SDS011;10576;53.556;9.868;2022-10-16T08:18:02;5.90;;;3.95;;
20830;SDS011;10576;53.556;9.868;2022-10-16T08:20:30;7.65;;;3.80;;
20830;SDS011;10576;53.556;9.868;2022-10-16T08:22:56;6.78;;;3.85;;
20830;SDS011;10576;53.556;9.868;2022-10-16T08:25:22;5.20;;;4.03;;
20830;SDS011;10576;53.556;9.868;2022-10-16T08:27:49;4.45;;;3.70;;
20830;SDS011;10576;53.556;9.868;2022-10-16T08:30:15;6.88;;;3.97;;
20830;SDS011;10576;53.556;9.868;2022-10-16T08:32:41;6.63;;;3.70;;
20830;SDS011;10576;53.556;9.868;2022-10-16T08:35:11;6.47;;;3.70;;
20830;SDS011;10576;53.556;9.868;2022-10-16T08:37:38;6.10;;;3.60;;
20830;SDS011;10576;53.556;9.868;2022-10-16T08:40:05;5.45;;;3.53;;
20830;SDS011;10576;53.556;9.868;2022-10-16T08:45:21;5.97;;;3.20;;
20830;SDS011;10576;53.556;9.868;2022-10-16T08:50:42;6.05;;;3.28;;
20830;SDS011;10576;53.556;9.868;2022-10-16T08:53:10;4.95;;;3.40;;
20830;SDS011;10576;53.556;9.868;2022-10-16T08:55:44;3.77;;;3.00;;
20830;SDS011;10576;53.556;9.868;2022-10-16T08:58:49;5.25;;;2.90;;
20830;SDS011;10576;53.556;9.868;2022-10-16T09:01:12;4.97;;;3.05;;
20830;SDS011;10576;53.556;9.868;2022-10-16T09:06:20;3.42;;;2.72;;
20830;SDS011;10576;53.556;9.868;2022-10-16T09:11:41;3.08;;;2.72;;
20830;SDS011;10576;53.556;9.868;2022-10-16T09:20:30;4.82;;;2.42;;
20830;SDS011;10576;53.556;9.868;2022-10-16T09:23:18;3.10;;;2.10;;
20830;SDS011;10576;53.556;9.868;2022-10-16T09:25:52;5.15;;;2.03;;
20830;SDS011;10576;53.556;9.868;2022-10-16T09:28:20;6.25;;;2.25;;
20830;SDS011;10576;53.556;9.868;2022-10-16T09:30:46;3.53;;;2.47;;
20830;SDS011;10576;53.556;9.868;2022-10-16T09:33:14;3.27;;;2.00;;
20830;SDS011;10576;53.556;9.868;2022-10-16T09:35:43;5.97;;;2.28;;
20830;SDS011;10576;53.556;9.868;2022-10-16T09:38:20;3.80;;;2.08;;
20830;SDS011;10576;53.556;9.868;2022-10-16T09:40:57;4.55;;;1.98;;
20830;SDS011;10576;53.556;9.868;2022-10-16T09:43:32;4.07;;;2.10;;
20830;SDS011;10576;53.556;9.868;2022-10-16T09:46:05;3.03;;;2.00;;
20830;SDS011;10576;53.556;9.868;2022-10-16T09:48:36;4.15;;;2.10;;
20830;SDS011;10576;53.556;9.868;2022-10-16T09:51:16;3.47;;;1.90;;
20830;SDS011;10576;53.556;9.868;2022-10-16T09:53:46;5.15;;;2.00;;
20830;SDS011;10576;53.556;9.868;2022-10-16T09:56:22;2.25;;;1.92;;
20830;SDS011;10576;53.556;9.868;2022-10-16T09:58:57;3.73;;;2.03;;
20830;SDS011;10576;53.556;9.868;2022-10-16T10:01:34;4.18;;;2.00;;
20830;SDS011;10576;53.556;9.868;2022-10-16T10:04:05;3.13;;;2.00;;
20830;SDS011;10576;53.556;9.868;2022-10-16T10:06:36;3.78;;;1.90;;
20830;SDS011;10576;53.556;9.868;2022-10-16T10:09:14;5.03;;;2.08;;
20830;SDS011;10576;53.556;9.868;2022-10-16T10:16:51;5.63;;;2.30;;
20830;SDS011;10576;53.556;9.868;2022-10-16T10:19:19;4.75;;;2.20;;
20830;SDS011;10576;53.556;9.868;2022-10-16T10:21:46;4.07;;;2.47;;
20830;SDS011;10576;53.556;9.868;2022-10-16T10:24:13;4.93;;;2.10;;
20830;SDS011;10576;53.556;9.868;2022-10-16T10:43:51;4.25;;;1.92;;
20830;SDS011;10576;53.556;9.868;2022-10-16T10:46:23;4.75;;;1.75;;
20830;SDS011;10576;53.556;9.868;2022-10-16T10:49:03;2.80;;;1.80;;
20830;SDS011;10576;53.556;9.868;2022-10-16T10:51:32;3.80;;;1.60;;
20830;SDS011;10576;53.556;9.868;2022-10-16T10:54:05;5.65;;;1.60;;
20830;SDS011;10576;53.556;9.868;2022-10-16T10:57:02;3.25;;;1.60;;
20830;SDS011;10576;53.556;9.868;2022-10-16T11:02:38;5.45;;;1.70;;
20830;SDS011;10576;53.556;9.868;2022-10-16T11:11:10;3.10;;;1.20;;
20830;SDS011;10576;53.556;9.868;2022-10-16T11:16:23;5.03;;;1.50;;
20830;SDS011;10576;53.556;9.868;2022-10-16T11:18:58;4.30;;;1.20;;
20830;SDS011;10576;53.556;9.868;2022-10-16T11:21:28;3.42;;;1.23;;
20830;SDS011;10576;53.556;9.868;2022-10-16T11:24:00;3.08;;;1.60;;
20830;SDS011;10576;53.556;9.868;2022-10-16T11:26:35;2.72;;;1.40;;
20830;SDS011;10576;53.556;9.868;2022-10-16T11:29:10;3.75;;;1.42;;
20830;SDS011;10576;53.556;9.868;2022-10-16T11:31:55;2.93;;;1.20;;
20830;SDS011;10576;53.556;9.868;2022-10-16T11:34:43;3.38;;;1.40;;
20830;SDS011;10576;53.556;9.868;2022-10-16T11:40:14;4.25;;;1.20;;
20830;SDS011;10576;53.556;9.868;2022-10-16T11:42:43;4.97;;;1.23;;
20830;SDS011;10576;53.556;9.868;2022-10-16T11:51:00;2.40;;;1.15;;
20830;SDS011;10576;53.556;9.868;2022-10-16T11:53:45;5.95;;;1.50;;
20830;SDS011;10576;53.556;9.868;2022-10-16T11:56:36;4.63;;;1.60;;
20830;SDS011;10576;53.556;9.868;2022-10-16T12:01:52;3.15;;;1.20;;
20830;SDS011;10576;53.556;9.868;2022-10-16T12:06:57;5.28;;;1.35;;
20830;SDS011;10576;53.556;9.868;2022-10-16T12:09:31;4.63;;;1.50;;
20830;SDS011;10576;53.556;9.868;2022-10-16T12:11:59;4.22;;;1.50;;
20830;SDS011;10576;53.556;9.868;2022-10-16T12:16:57;6.57;;;1.53;;
20830;SDS011;10576;53.556;9.868;2022-10-16T12:19:41;3.88;;;1.42;;
20830;SDS011;10576;53.556;9.868;2022-10-16T12:22:15;4.23;;;1.50;;
20830;SDS011;10576;53.556;9.868;2022-10-16T12:24:43;6.28;;;1.42;;
20830;SDS011;10576;53.556;9.868;2022-10-16T12:30:04;4.82;;;1.50;;
20830;SDS011;10576;53.556;9.868;2022-10-16T12:32:33;4.40;;;1.50;;
20830;SDS011;10576;53.556;9.868;2022-10-16T12:35:01;3.05;;;1.35;;
20830;SDS011;10576;53.556;9.868;2022-10-16T12:37:35;4.65;;;1.45;;
20830;SDS011;10576;53.556;9.868;2022-10-16T12:40:22;3.90;;;1.73;;
20830;SDS011;10576;53.556;9.868;2022-10-16T12:42:52;7.40;;;1.75;;
20830;SDS011;10576;53.556;9.868;2022-10-16T12:45:23;6.45;;;1.60;;
20830;SDS011;10576;53.556;9.868;2022-10-16T12:47:53;4.93;;;1.58;;
20830;SDS011;10576;53.556;9.868;2022-10-16T12:52:48;3.20;;;1.33;;
20830;SDS011;10576;53.556;9.868;2022-10-16T12:55:18;5.10;;;1.50;;
20830;SDS011;10576;53.556;9.868;2022-10-16T13:00:56;4.35;;;1.48;;
20830;SDS011;10576;53.556;9.868;2022-10-16T13:06:34;4.17;;;1.50;;
20830;SDS011;10576;53.556;9.868;2022-10-16T13:11:59;5.43;;;1.45;;
20830;SDS011;10576;53.556;9.868;2022-10-16T13:17:16;5.90;;;1.50;;
20830;SDS011;10576;53.556;9.868;2022-10-16T13:27:57;4.90;;;1.48;;
20830;SDS011;10576;53.556;9.868;2022-10-16T13:30:26;4.80;;;1.43;;
20830;SDS011;10576;53.556;9.868;2022-10-16T13:33:02;4.80;;;1.60;;
20830;SDS011;10576;53.556;9.868;2022-10-16T13:35:49;4.00;;;1.25;;
20830;SDS011;10576;53.556;9.868;2022-10-16T13:38:18;5.55;;;1.48;;
20830;SDS011;10576;53.556;9.868;2022-10-16T13:43:23;5.38;;;1.40;;
20830;SDS011;10576;53.556;9.868;2022-10-16T13:46:01;4.67;;;1.40;;
20830;SDS011;10576;53.556;9.868;2022-10-16T13:48:29;3.20;;;1.40;;
20830;SDS011;10576;53.556;9.868;2022-10-16T13:51:03;4.22;;;1.55;;
20830;SDS011;10576;53.556;9.868;2022-10-16T13:53:37;3.38;;;1.40;;
20830;SDS011;10576;53.556;9.868;2022-10-16T13:56:05;5.45;;;1.55;;
20830;SDS011;10576;53.556;9.868;2022-10-16T13:58:33;3.53;;;1.40;;
20830;SDS011;10576;53.556;9.868;2022-10-16T14:01:00;5.93;;;1.60;;
20830;SDS011;10576;53.556;9.868;2022-10-16T14:03:28;6.45;;;1.50;;
20830;SDS011;10576;53.556;9.868;2022-10-16T14:05:56;4.68;;;1.42;;
20830;SDS011;10576;53.556;9.868;2022-10-16T14:08:25;3.67;;;1.40;;
20830;SDS011;10576;53.556;9.868;2022-10-16T14:10:53;4.95;;;1.40;;
20830;SDS011;10576;53.556;9.868;2022-10-16T14:14:08;2.00;;;1.35;;
20830;SDS011;10576;53.556;9.868;2022-10-16T14:16:11;4.93;;;1.65;;
20830;SDS011;10576;53.556;9.868;2022-10-16T14:18:45;3.50;;;1.40;;
20830;SDS011;10576;53.556;9.868;2022-10-16T14:21:19;5.90;;;1.50;;
20830;SDS011;10576;53.556;9.868;2022-10-16T14:23:44;3.78;;;1.30;;
20830;SDS011;10576;53.556;9.868;2022-10-16T14:28:38;5.18;;;1.50;;
20830;SDS011;10576;53.556;9.868;2022-10-16T14:33:52;3.75;;;1.30;;
20830;SDS011;10576;53.556;9.868;2022-10-16T14:36:17;2.70;;;1.30;;
20830;SDS011;10576;53.556;9.868;2022-10-16T14:41:23;6.15;;;1.50;;
20830;SDS011;10576;53.556;9.868;2022-10-16T14:43:50;6.95;;;1.70;;
20830;SDS011;10576;53.556;9.868;2022-10-16T14:46:20;5.28;;;1.50;;
20830;SDS011;10576;53.556;9.868;2022-10-16T14:48:51;6.07;;;1.48;;
20830;SDS011;10576;53.556;9.868;2022-10-16T14:51:24;5.03;;;1.40;;
20830;SDS011;10576;53.556;9.868;2022-10-16T14:53:51;5.78;;;1.40;;
20830;SDS011;10576;53.556;9.868;2022-10-16T14:56:18;5.55;;;1.55;;
20830;SDS011;10576;53.556;9.868;2022-10-16T14:58:49;4.78;;;1.63;;
20830;SDS011;10576;53.556;9.868;2022-10-16T15:01:16;3.47;;;1.48;;
20830;SDS011;10576;53.556;9.868;2022-10-16T15:03:42;4.82;;;1.50;;
20830;SDS011;10576;53.556;9.868;2022-10-16T15:06:12;4.43;;;1.50;;
20830;SDS011;10576;53.556;9.868;2022-10-16T15:08:39;4.15;;;1.40;;
20830;SDS011;10576;53.556;9.868;2022-10-16T15:11:16;4.55;;;1.52;;
20830;SDS011;10576;53.556;9.868;2022-10-16T15:13:43;4.10;;;1.70;;
20830;SDS011;10576;53.556;9.868;2022-10-16T15:16:12;4.18;;;1.48;;
20830;SDS011;10576;53.556;9.868;2022-10-16T15:18:40;8.52;;;1.70;;
20830;SDS011;10576;53.556;9.868;2022-10-16T15:21:05;5.03;;;1.40;;
20830;SDS011;10576;53.556;9.868;2022-10-16T15:23:32;4.18;;;1.60;;
20830;SDS011;10576;53.556;9.868;2022-10-16T15:25:57;5.35;;;1.60;;
20830;SDS011;10576;53.556;9.868;2022-10-16T15:28:24;4.88;;;1.80;;
20830;SDS011;10576;53.556;9.868;2022-10-16T15:30:51;6.18;;;1.50;;
20830;SDS011;10576;53.556;9.868;2022-10-16T15:33:19;6.70;;;1.40;;
20830;SDS011;10576;53.556;9.868;2022-10-16T15:35:48;5.32;;;1.55;;
20830;SDS011;10576;53.556;9.868;2022-10-16T15:38:15;3.47;;;1.80;;
20830;SDS011;10576;53.556;9.868;2022-10-16T15:40:41;4.50;;;1.52;;
20830;SDS011;10576;53.556;9.868;2022-10-16T15:43:07;6.90;;;2.00;;
20830;SDS011;10576;53.556;9.868;2022-10-16T15:45:34;5.18;;;1.70;;
20830;SDS011;10576;53.556;9.868;2022-10-16T15:47:59;8.18;;;1.60;;
20830;SDS011;10576;53.556;9.868;2022-10-16T15:50:25;4.97;;;1.30;;
20830;SDS011;10576;53.556;9.868;2022-10-16T15:52:51;4.23;;;1.53;;
20830;SDS011;10576;53.556;9.868;2022-10-16T15:55:17;4.93;;;1.50;;
20830;SDS011;10576;53.556;9.868;2022-10-16T15:57:43;6.57;;;1.67;;
20830;SDS011;10576;53.556;9.868;2022-10-16T16:00:14;6.30;;;1.65;;
20830;SDS011;10576;53.556;9.868;2022-10-16T16:02:41;4.32;;;1.50;;
20830;SDS011;10576;53.556;9.868;2022-10-16T16:05:08;5.68;;;1.70;;
20830;SDS011;10576;53.556;9.868;2022-10-16T16:07:34;7.35;;;1.90;;
20830;SDS011;10576;53.556;9.868;2022-10-16T16:10:01;5.10;;;1.58;;
20830;SDS011;10576;53.556;9.868;2022-10-16T16:12:29;6.63;;;2.23;;
20830;SDS011;10576;53.556;9.868;2022-10-16T16:14:54;6.73;;;2.23;;
20830;SDS011;10576;53.556;9.868;2022-10-16T16:17:20;8.80;;;3.17;;
20830;SDS011;10576;53.556;9.868;2022-10-16T16:19:46;8.40;;;3.07;;
20830;SDS011;10576;53.556;9.868;2022-10-16T16:22:12;7.17;;;2.77;;
20830;SDS011;10576;53.556;9.868;2022-10-16T16:24:37;7.37;;;2.70;;
20830;SDS011;10576;53.556;9.868;2022-10-16T16:27:03;9.30;;;2.80;;
20830;SDS011;10576;53.556;9.868;2022-10-16T16:29:28;5.10;;;2.50;;
20830;SDS011;10576;53.556;9.868;2022-10-16T16:31:54;6.50;;;2.70;;
20830;SDS011;10576;53.556;9.868;2022-10-16T16:34:25;6.30;;;2.40;;
20830;SDS011;10576;53.556;9.868;2022-10-16T16:36:52;5.50;;;2.30;;
20830;SDS011;10576;53.556;9.868;2022-10-16T16:39:18;9.82;;;2.40;;
20830;SDS011;10576;53.556;9.868;2022-10-16T16:41:44;7.72;;;2.72;;
20830;SDS011;10576;53.556;9.868;2022-10-16T16:44:13;7.77;;;3.37;;
20830;SDS011;10576;53.556;9.868;2022-10-16T16:46:40;7.38;;;3.58;;
20830;SDS011;10576;53.556;9.868;2022-10-16T16:49:08;7.15;;;2.78;;
20830;SDS011;10576;53.556;9.868;2022-10-16T16:51:36;6.80;;;2.90;;
20830;SDS011;10576;53.556;9.868;2022-10-16T16:54:03;5.70;;;2.30;;
20830;SDS011;10576;53.556;9.868;2022-10-16T16:56:29;7.05;;;2.47;;
20830;SDS011;10576;53.556;9.868;2022-10-16T16:58:55;5.43;;;2.30;;
20830;SDS011;10576;53.556;9.868;2022-10-16T17:01:22;4.15;;;2.30;;